KHDE

Brewster Field Airport

Holdrege, Nebraska, USA
METAR KHDE 200655Z AUTO 34012G18KT 10SM OVC014 M11/M13 A2988 RMK AO2 T11121131
Observed Flight Rules
Feb-20 @ 06:55 UTC (20 minutes ago) Marginal Visual Flight Rules
Wind Visibility Clouds
340° at 12 knots
 Gusting to 18 knots
10 miles
  • Overcast at 1,400' AGL
Temperatures Readings
Current -11°C / 12°F
Dewpoint -13°C / 9°F
Humidity 85%
Altimeter 29.88" Hg
Pressure 1012 hPa
Elevation 705
METAR KHDE 200655Z AUTO 34012G18KT 10SM OVC014 M11/M13 A2988 RMK AO2 T11121131
Observed Flight Rules
Feb-20 @ 06:55 UTC
(20 minutes ago)
MVFR
Wind Visibility
340° at 12 knots
 Gusting to 18 knots
10 miles
Clouds
  • Overcast at 1,400' AGL
Temperature Dewpoint
-11°C / 12°F -13°C / 9°F
Humidity Altimeter Pressure
85% 29.88" Hg 1012 hPa